KTYS/TYS METAR and TAF weather

Enter ICAO airport designator
Station Type Date Time Source
KTYS METAR 2021/10/22 17:53 UTC NOAA

KTYS 221753Z 27008KT 10SM SCT025 BKN031 OVC250 16/09 A3005 RMK AO2 SLP169 T01610094 10167 20117 58009


Station Type Date Time Source
KTYS Decoded METAR 2021/10/22 17:53 UTC NOAA

MCGHEE TYSON AIRPORT, TN, United States (KTYS) 35-49N 083-59W 302M
Oct 22, 2021 - 01:53 PM EDT / 2021.10.22 1753 UTC
Wind: from the W (270 degrees) at 9 MPH (8 KT):0
Visibility: 10 mile(s):0
Sky conditions: overcast
Temperature: 61.0 F (16.1 C)
Dew Point: 48.9 F (9.4 C)
Relative Humidity: 64%
Pressure (altimeter): 30.05 in. Hg (1017 hPa)
Pressure tendency: 0.03 inches (0.9 hPa) lower than three hours ago
ob: KTYS 221753Z 27008KT 10SM SCT025 BKN031 OVC250 16/09 A3005 RMK AO2 SLP169 T01610094 10167 20117 58009
cycle: 18

Station Type Date Time Source
KTYS TAF 2021/10/22 18:36 UTC NOAA

TAF KTYS 221733Z 2218/2318 27006KT P6SM BKN080
TEMPO 2218/2219 BKN028
FM222100 26005KT P6SM SCT060
FM230900 00000KT 5SM BR FEW010
FM231200 29004KT P6SM SCT120

Example: see airport list